createdAt,value
2022-11-26T00:00:57.452Z,8.45
2022-11-26T00:03:25.608Z,7.80
2022-11-26T00:05:57.922Z,7.90
2022-11-26T00:08:34.820Z,8.02
2022-11-26T00:11:03.716Z,7.78
2022-11-26T00:13:32.685Z,7.70
2022-11-26T00:16:01.015Z,8.02
2022-11-26T00:18:29.087Z,7.60
2022-11-26T00:21:01.946Z,7.97
2022-11-26T00:23:30.235Z,7.47
2022-11-26T00:26:00.665Z,7.47
2022-11-26T00:28:31.260Z,8.55
2022-11-26T00:31:01.775Z,8.30
2022-11-26T00:33:31.439Z,9.77
2022-11-26T00:36:04.800Z,9.13
2022-11-26T00:38:33.035Z,8.80
2022-11-26T00:41:02.026Z,9.48
2022-11-26T00:43:30.055Z,9.00
2022-11-26T00:45:58.183Z,10.18
2022-11-26T00:48:26.508Z,10.43
2022-11-26T00:50:54.867Z,10.02
2022-11-26T00:53:27.448Z,11.30
2022-11-26T00:58:28.703Z,11.38
2022-11-26T01:00:58.936Z,11.70
2022-11-26T01:03:27.624Z,11.43
2022-11-26T01:06:00.106Z,11.88
2022-11-26T01:08:34.154Z,10.93
2022-11-26T01:11:05.767Z,10.80
2022-11-26T01:13:34.638Z,9.98
2022-11-26T01:16:17.924Z,11.02
2022-11-26T01:18:49.477Z,10.80
2022-11-26T01:21:18.094Z,9.63
2022-11-26T01:23:47.521Z,10.35
2022-11-26T01:26:17.438Z,9.02
2022-11-26T01:28:45.729Z,8.65
2022-11-26T01:31:16.782Z,9.68
2022-11-26T01:33:45.456Z,8.70
2022-11-26T01:36:24.155Z,9.00
2022-11-26T01:38:54.517Z,7.97
2022-11-26T01:41:35.886Z,8.93
2022-11-26T01:44:05.607Z,7.80
2022-11-26T01:46:37.584Z,7.90
2022-11-26T01:49:21.807Z,9.18
2022-11-26T01:51:55.344Z,7.47
2022-11-26T01:54:24.948Z,8.40
2022-11-26T01:56:55.949Z,9.40
2022-11-26T01:59:29.699Z,7.78
2022-11-26T02:02:01.016Z,8.00
2022-11-26T02:04:33.255Z,8.48
2022-11-26T02:07:01.921Z,9.43
2022-11-26T02:09:32.669Z,8.80
2022-11-26T02:12:01.722Z,8.40
2022-11-26T02:14:33.848Z,8.77
2022-11-26T02:17:13.852Z,8.30
2022-11-26T02:20:29.868Z,8.52
2022-11-26T02:23:24.195Z,8.63
2022-11-26T02:26:21.032Z,8.13
2022-11-26T02:29:01.700Z,7.57
2022-11-26T02:31:40.644Z,8.05
2022-11-26T02:34:16.211Z,7.65
2022-11-26T02:36:49.527Z,7.30
2022-11-26T02:39:19.679Z,7.82
2022-11-26T02:41:49.992Z,7.68
2022-11-26T02:44:22.794Z,8.00
2022-11-26T02:46:55.625Z,8.07
2022-11-26T02:49:24.106Z,7.35
2022-11-26T02:51:55.837Z,7.88
2022-11-26T02:54:26.756Z,7.18
2022-11-26T02:56:55.931Z,7.25
2022-11-26T02:59:24.036Z,7.63
2022-11-26T03:01:59.799Z,8.27
2022-11-26T03:04:32.249Z,8.77
2022-11-26T03:07:04.720Z,9.98
2022-11-26T03:09:41.523Z,8.15
2022-11-26T03:12:10.173Z,7.50
2022-11-26T03:14:38.497Z,8.50
2022-11-26T03:17:08.154Z,7.63
2022-11-26T03:19:36.316Z,8.15
2022-11-26T03:22:04.657Z,8.10
2022-11-26T03:24:33.402Z,7.60
2022-11-26T03:27:01.530Z,7.40
2022-11-26T03:29:30.177Z,7.35
2022-11-26T03:31:58.834Z,6.43
2022-11-26T03:34:28.888Z,6.55
2022-11-26T03:36:57.272Z,6.80
2022-11-26T03:39:25.413Z,7.38
2022-11-26T03:41:53.498Z,7.00
2022-11-26T03:44:21.863Z,6.50
2022-11-26T03:46:49.909Z,6.97
2022-11-26T03:49:18.185Z,7.28
2022-11-26T03:51:47.632Z,8.32
2022-11-26T03:54:15.869Z,7.45
2022-11-26T03:56:43.946Z,7.75
2022-11-26T03:59:12.482Z,7.45
2022-11-26T04:01:40.617Z,8.20
2022-11-26T04:04:08.759Z,7.47
2022-11-26T04:06:36.977Z,7.43
2022-11-26T04:09:06.502Z,8.52
2022-11-26T04:11:34.609Z,7.80
2022-11-26T04:14:02.767Z,8.10
2022-11-26T04:16:30.923Z,7.38
2022-11-26T04:18:59.057Z,7.50
2022-11-26T04:21:27.126Z,7.65
2022-11-26T04:23:55.217Z,7.10
2022-11-26T04:26:24.927Z,8.02
2022-11-26T04:28:53.257Z,8.77
2022-11-26T04:31:21.336Z,7.50
2022-11-26T04:33:49.468Z,8.02
2022-11-26T04:36:17.493Z,7.22
2022-11-26T04:38:45.612Z,7.50
2022-11-26T04:41:13.642Z,6.55
2022-11-26T04:43:43.108Z,7.68
2022-11-26T04:46:11.266Z,7.13
2022-11-26T04:48:39.305Z,7.20
2022-11-26T04:51:07.658Z,7.18
2022-11-26T04:53:35.921Z,6.55
2022-11-26T04:56:03.958Z,6.70
2022-11-26T04:58:32.309Z,6.80
2022-11-26T05:01:02.190Z,6.68
2022-11-26T05:03:30.241Z,6.45
2022-11-26T05:05:58.320Z,6.80
2022-11-26T05:08:26.359Z,6.60
2022-11-26T05:10:55.552Z,7.40
2022-11-26T05:13:23.806Z,7.43
2022-11-26T05:15:51.911Z,8.57
2022-11-26T05:18:21.345Z,6.75
2022-11-26T05:20:49.806Z,8.02
2022-11-26T05:23:18.160Z,7.82
2022-11-26T05:25:46.284Z,8.05
2022-11-26T05:28:14.794Z,8.18
2022-11-26T05:30:42.827Z,9.05
2022-11-26T05:33:10.963Z,8.27
2022-11-26T05:35:40.517Z,8.45
2022-11-26T05:38:08.615Z,8.57
2022-11-26T05:40:36.744Z,8.15
2022-11-26T05:43:04.718Z,8.07
2022-11-26T05:45:32.828Z,8.35
2022-11-26T05:48:00.980Z,8.48
2022-11-26T05:50:29.032Z,9.75
2022-11-26T05:52:58.423Z,9.25
2022-11-26T05:55:26.843Z,9.38
2022-11-26T05:57:54.880Z,10.93
2022-11-26T06:00:23.563Z,9.75
2022-11-26T06:02:51.655Z,10.23
2022-11-26T06:05:20.184Z,9.10
2022-11-26T06:07:48.273Z,9.50
2022-11-26T06:10:17.805Z,9.38
2022-11-26T06:12:45.956Z,8.93
2022-11-26T06:15:14.194Z,9.45
2022-11-26T06:17:42.256Z,9.43
2022-11-26T06:20:11.265Z,8.52
2022-11-26T06:22:39.406Z,8.98
2022-11-26T06:25:09.353Z,9.50
2022-11-26T06:27:39.204Z,8.80
2022-11-26T06:30:09.570Z,8.75
2022-11-26T06:32:38.199Z,8.30
2022-11-26T06:35:07.045Z,7.85
2022-11-26T06:37:35.101Z,7.70
2022-11-26T06:40:03.333Z,8.20
2022-11-26T06:42:31.569Z,8.55
2022-11-26T06:45:01.110Z,6.75
2022-11-26T06:47:29.395Z,7.60
2022-11-26T06:49:57.594Z,7.95
2022-11-26T06:52:26.144Z,7.43
2022-11-26T06:54:54.216Z,8.05
2022-11-26T06:57:22.325Z,7.97
2022-11-26T06:59:50.351Z,7.85
2022-11-26T07:02:19.931Z,8.63
2022-11-26T07:04:48.155Z,7.95
2022-11-26T07:07:16.358Z,7.40
2022-11-26T07:09:44.453Z,7.20
2022-11-26T07:12:13.126Z,7.25
2022-11-26T07:14:41.615Z,7.60
2022-11-26T07:17:09.816Z,6.53
2022-11-26T07:19:39.307Z,7.00
2022-11-26T07:22:07.425Z,7.05
2022-11-26T07:24:35.505Z,7.03
2022-11-26T07:27:03.628Z,7.57
2022-11-26T07:29:31.790Z,7.45
2022-11-26T07:32:00.044Z,8.07
2022-11-26T07:34:28.242Z,8.05
2022-11-26T07:36:58.463Z,8.13
2022-11-26T07:39:26.646Z,8.48
2022-11-26T07:41:54.842Z,8.02
2022-11-26T07:44:22.930Z,7.35
2022-11-26T07:46:51.217Z,7.63
2022-11-26T07:49:19.270Z,8.23
2022-11-26T07:51:49.577Z,7.97
2022-11-26T07:54:18.980Z,7.90
2022-11-26T07:56:47.044Z,7.88
2022-11-26T07:59:15.258Z,8.20
2022-11-26T08:01:43.327Z,8.40
2022-11-26T08:04:11.457Z,9.38
2022-11-26T08:06:39.453Z,9.07
2022-11-26T08:09:07.703Z,9.45
2022-11-26T08:11:37.122Z,9.43
2022-11-26T08:14:07.311Z,9.27
2022-11-26T08:16:35.734Z,8.80
2022-11-26T08:19:07.327Z,9.10
2022-11-26T08:21:35.434Z,8.75
2022-11-26T08:24:05.003Z,9.27
2022-11-26T08:26:37.084Z,9.48
2022-11-26T08:29:09.331Z,8.35
2022-11-26T08:31:45.131Z,8.98
2022-11-26T08:34:16.001Z,9.23
2022-11-26T08:36:44.665Z,9.30
2022-11-26T08:39:14.700Z,9.60
2022-11-26T08:41:46.190Z,10.63
2022-11-26T08:44:18.392Z,9.38
2022-11-26T08:46:46.709Z,10.70
2022-11-26T08:49:16.969Z,9.75
2022-11-26T08:51:45.538Z,11.70
2022-11-26T08:54:13.595Z,11.00
2022-11-26T08:56:41.653Z,12.90
2022-11-26T08:59:09.733Z,12.35
2022-11-26T09:01:39.208Z,13.93
2022-11-26T09:04:07.623Z,12.38
2022-11-26T09:06:37.891Z,12.60
2022-11-26T09:09:17.706Z,14.10
2022-11-26T09:11:49.236Z,13.60
2022-11-26T09:14:19.362Z,15.73
2022-11-26T09:16:48.990Z,14.80
2022-11-26T09:19:18.031Z,15.95
2022-11-26T09:21:47.013Z,17.05
2022-11-26T09:24:16.523Z,15.93
2022-11-26T09:26:45.555Z,15.63
2022-11-26T09:29:14.391Z,15.55
2022-11-26T09:32:07.494Z,16.88
2022-11-26T09:34:32.611Z,16.80
2022-11-26T09:37:00.738Z,16.33
2022-11-26T09:39:29.556Z,16.25
2022-11-26T09:42:05.202Z,15.45
2022-11-26T09:45:02.998Z,15.48
2022-11-26T09:47:37.099Z,15.60
2022-11-26T09:50:18.356Z,16.13
2022-11-26T09:52:53.809Z,17.10
2022-11-26T09:55:24.877Z,17.27
2022-11-26T09:58:00.463Z,17.38
2022-11-26T10:00:32.331Z,17.27
2022-11-26T10:03:00.512Z,16.30
2022-11-26T10:05:53.418Z,17.45
2022-11-26T10:08:52.190Z,16.35
2022-11-26T10:11:30.934Z,17.75
2022-11-26T10:14:10.999Z,17.70
2022-11-26T10:16:44.708Z,16.70
2022-11-26T10:19:24.070Z,16.23
2022-11-26T10:21:59.098Z,15.38
2022-11-26T10:24:31.417Z,15.73
2022-11-26T10:27:02.649Z,15.90
2022-11-26T10:29:39.306Z,15.20
2022-11-26T10:32:14.892Z,15.60
2022-11-26T10:34:50.835Z,16.00
2022-11-26T10:37:21.725Z,14.98
2022-11-26T10:39:54.030Z,14.73
2022-11-26T10:42:25.330Z,14.98
2022-11-26T10:44:54.468Z,13.15
2022-11-26T10:47:28.330Z,12.27
2022-11-26T10:49:58.497Z,11.88
2022-11-26T10:52:30.269Z,11.98
2022-11-26T10:55:11.768Z,12.57
2022-11-26T10:57:47.659Z,11.13
2022-11-26T11:00:31.497Z,12.68
2022-11-26T11:03:00.809Z,12.32
2022-11-26T11:05:29.999Z,11.50
2022-11-26T11:08:01.787Z,11.63
2022-11-26T11:10:29.976Z,12.52
2022-11-26T11:13:11.713Z,11.32
2022-11-26T11:15:41.269Z,12.45
2022-11-26T11:18:20.356Z,11.23
2022-11-26T11:20:57.173Z,11.18
2022-11-26T11:23:52.184Z,10.68
2022-11-26T11:26:21.604Z,9.88
2022-11-26T11:28:52.812Z,11.57
2022-11-26T11:31:23.275Z,10.00
2022-11-26T11:33:53.064Z,10.15
2022-11-26T11:36:27.947Z,10.15
2022-11-26T11:38:58.967Z,10.82
2022-11-26T11:41:31.692Z,11.25
2022-11-26T11:46:57.865Z,10.55
2022-11-26T11:49:39.273Z,10.98
2022-11-26T11:52:17.922Z,9.65
2022-11-26T11:55:00.158Z,9.55
2022-11-26T11:57:44.323Z,9.25
2022-11-26T12:00:15.955Z,9.23
2022-11-26T12:03:09.316Z,8.77
2022-11-26T12:06:00.360Z,9.38
2022-11-26T12:08:41.646Z,8.93
2022-11-26T12:11:28.202Z,9.35
2022-11-26T12:14:01.009Z,10.57
2022-11-26T12:19:06.037Z,8.65
2022-11-26T12:21:40.558Z,10.02
2022-11-26T12:24:14.743Z,9.45
2022-11-26T12:26:53.268Z,9.13
2022-11-26T12:29:30.496Z,9.73
2022-11-26T12:32:06.334Z,8.27
2022-11-26T12:34:39.785Z,8.95
2022-11-26T12:37:16.381Z,8.57
2022-11-26T12:39:53.901Z,8.73
2022-11-26T12:42:31.446Z,8.63
2022-11-26T12:45:08.010Z,7.68
2022-11-26T12:47:39.402Z,8.13
2022-11-26T12:50:19.528Z,8.27
2022-11-26T12:52:54.467Z,8.80
2022-11-26T12:55:27.027Z,8.93
2022-11-26T12:58:02.212Z,7.18
2022-11-26T13:00:36.313Z,6.80
2022-11-26T13:03:06.941Z,7.13
2022-11-26T13:05:48.577Z,7.47
2022-11-26T13:08:34.026Z,7.10
2022-11-26T13:11:18.289Z,7.38
2022-11-26T13:13:58.417Z,7.18
2022-11-26T13:16:35.925Z,6.72
2022-11-26T13:19:08.292Z,7.18
2022-11-26T13:22:01.470Z,7.18
2022-11-26T13:27:41.344Z,6.45
2022-11-26T13:30:21.202Z,5.82
2022-11-26T13:33:14.661Z,6.55
2022-11-26T13:36:24.034Z,6.28
2022-11-26T13:39:12.326Z,6.45
2022-11-26T13:42:01.865Z,6.85
2022-11-26T13:45:01.296Z,6.38
2022-11-26T13:47:37.215Z,7.15
2022-11-26T13:50:12.961Z,6.50
2022-11-26T13:52:45.672Z,5.70
2022-11-26T13:57:49.268Z,6.63
2022-11-26T14:00:26.528Z,6.00
2022-11-26T14:02:56.806Z,5.38
2022-11-26T14:05:45.197Z,6.07
2022-11-26T14:08:35.121Z,7.07
2022-11-26T14:11:03.799Z,6.50
2022-11-26T14:13:32.065Z,6.78
2022-11-26T14:16:03.089Z,6.80
2022-11-26T14:19:00.997Z,6.80
2022-11-26T14:21:30.761Z,6.63
2022-11-26T14:24:00.903Z,6.90
2022-11-26T14:26:34.261Z,7.22
2022-11-26T14:29:13.094Z,6.95
2022-11-26T14:31:44.001Z,6.03
2022-11-26T14:34:18.427Z,4.47
2022-11-26T14:36:54.610Z,5.10
2022-11-26T14:39:22.787Z,4.70
2022-11-26T14:42:04.139Z,4.05
2022-11-26T14:44:34.338Z,4.72
2022-11-26T14:47:09.645Z,5.70
2022-11-26T14:49:42.621Z,4.88
2022-11-26T14:52:20.589Z,5.32
2022-11-26T14:54:52.718Z,4.72
2022-11-26T14:57:25.228Z,5.43
2022-11-26T14:59:57.850Z,5.28
2022-11-26T15:02:28.464Z,5.28
2022-11-26T15:05:02.712Z,5.43
2022-11-26T15:07:32.660Z,5.30
2022-11-26T15:10:07.040Z,5.25
2022-11-26T15:12:37.555Z,6.75
2022-11-26T15:15:07.244Z,6.68
2022-11-26T15:17:35.962Z,5.75
2022-11-26T15:20:09.064Z,6.47
2022-11-26T15:22:42.532Z,6.75
2022-11-26T15:25:18.542Z,6.95
2022-11-26T15:27:54.522Z,6.78
2022-11-26T15:30:24.821Z,5.82
2022-11-26T15:32:59.034Z,6.20
2022-11-26T15:35:29.409Z,6.45
2022-11-26T15:38:00.967Z,6.53
2022-11-26T15:40:32.549Z,6.95
2022-11-26T15:43:03.960Z,6.60
2022-11-26T15:45:38.032Z,7.60
2022-11-26T15:48:07.899Z,6.93
2022-11-26T15:50:39.417Z,7.90
2022-11-26T15:53:15.411Z,8.20
2022-11-26T15:55:48.732Z,8.52
2022-11-26T15:58:23.100Z,6.82
2022-11-26T16:00:52.902Z,7.68
2022-11-26T16:03:43.143Z,6.70
2022-11-26T16:06:29.128Z,6.95
2022-11-26T16:09:00.720Z,6.35
2022-11-26T16:11:31.033Z,6.13
2022-11-26T16:13:59.419Z,6.47
2022-11-26T16:16:31.453Z,7.10
2022-11-26T16:19:02.097Z,6.90
2022-11-26T16:21:33.123Z,7.13
2022-11-26T16:24:05.570Z,6.45
2022-11-26T16:26:54.309Z,6.32
2022-11-26T16:29:22.356Z,6.20
2022-11-26T16:31:50.360Z,7.85
2022-11-26T16:34:18.450Z,8.07
2022-11-26T16:36:48.482Z,7.63
2022-11-26T16:39:18.014Z,8.82
2022-11-26T16:41:48.364Z,6.70
2022-11-26T16:44:16.526Z,8.50
2022-11-26T16:46:45.809Z,7.50
2022-11-26T16:49:13.920Z,7.32
2022-11-26T16:51:42.074Z,7.35
2022-11-26T16:54:15.753Z,6.80
2022-11-26T16:56:44.057Z,6.95
2022-11-26T16:59:30.029Z,6.63
2022-11-26T17:01:58.115Z,7.00
2022-11-26T17:04:26.212Z,5.93
2022-11-26T17:06:54.272Z,5.75
2022-11-26T17:09:24.224Z,6.13
2022-11-26T17:11:52.292Z,6.28
2022-11-26T17:14:20.341Z,6.35
2022-11-26T17:16:48.438Z,6.68
2022-11-26T17:19:16.662Z,5.90
2022-11-26T17:21:45.338Z,5.88
2022-11-26T17:24:14.662Z,5.45
2022-11-26T17:26:45.945Z,5.90
2022-11-26T17:29:14.612Z,6.28
2022-11-26T17:31:42.807Z,6.75
2022-11-26T17:34:10.823Z,6.68
2022-11-26T17:36:39.096Z,6.47
2022-11-26T17:39:12.224Z,6.50
2022-11-26T17:41:40.327Z,6.03
2022-11-26T17:44:09.721Z,6.65
2022-11-26T17:47:08.959Z,7.57
2022-11-26T17:49:29.907Z,7.88
2022-11-26T17:51:58.170Z,7.18
2022-11-26T17:54:26.179Z,7.28
2022-11-26T17:56:54.254Z,6.70
2022-11-26T17:59:24.034Z,6.68
2022-11-26T18:01:52.268Z,5.45
2022-11-26T18:04:20.534Z,6.75
2022-11-26T18:06:57.709Z,5.95
2022-11-26T18:09:25.892Z,6.55
2022-11-26T18:11:56.709Z,6.18
2022-11-26T18:14:26.495Z,6.38
2022-11-26T18:16:55.488Z,7.32
2022-11-26T18:19:24.522Z,8.00
2022-11-26T18:21:53.125Z,7.63
2022-11-26T18:24:21.287Z,7.68
2022-11-26T18:26:49.364Z,7.45
2022-11-26T18:29:17.479Z,8.07
2022-11-26T18:31:46.975Z,8.88
2022-11-26T18:34:15.099Z,8.57
2022-11-26T18:36:43.359Z,6.78
2022-11-26T18:39:12.428Z,7.20
2022-11-26T18:41:43.254Z,6.85
2022-11-26T18:44:12.206Z,7.07
2022-11-26T18:46:40.316Z,7.38
2022-11-26T18:49:09.905Z,7.85
2022-11-26T18:51:38.001Z,6.93
2022-11-26T18:54:06.961Z,6.05
2022-11-26T18:56:35.147Z,6.47
2022-11-26T18:59:03.172Z,6.90
2022-11-26T19:01:33.036Z,6.65
2022-11-26T19:04:01.248Z,6.30
2022-11-26T19:06:32.628Z,6.70
2022-11-26T19:09:03.572Z,5.57
2022-11-26T19:11:32.082Z,5.65
2022-11-26T19:14:00.463Z,5.43
2022-11-26T19:16:29.545Z,5.53
2022-11-26T19:18:57.745Z,6.82
2022-11-26T19:21:28.149Z,5.50
2022-11-26T19:24:02.106Z,5.70
2022-11-26T19:26:30.817Z,5.38
2022-11-26T19:29:02.043Z,6.60
2022-11-26T19:31:30.705Z,5.88
2022-11-26T19:33:59.116Z,6.78
2022-11-26T19:36:27.780Z,7.00
2022-11-26T19:38:58.614Z,6.38
2022-11-26T19:41:27.983Z,7.45
2022-11-26T19:43:56.408Z,6.97
2022-11-26T19:46:25.780Z,6.30
2022-11-26T19:48:55.746Z,6.85
2022-11-26T19:51:26.315Z,6.32
2022-11-26T19:53:58.167Z,6.50
2022-11-26T19:56:27.780Z,6.17
2022-11-26T19:58:57.926Z,5.85
2022-11-26T20:01:30.028Z,5.13
2022-11-26T20:03:59.459Z,5.25
2022-11-26T20:06:28.808Z,5.95
2022-11-26T20:08:59.273Z,6.13
2022-11-26T20:11:28.193Z,6.90
2022-11-26T20:13:56.877Z,6.25
2022-11-26T20:16:26.977Z,6.13
2022-11-26T20:18:56.042Z,5.50
2022-11-26T20:21:27.142Z,6.30
2022-11-26T20:23:58.432Z,6.45
2022-11-26T20:26:30.432Z,6.10
2022-11-26T20:29:01.994Z,6.63
2022-11-26T20:31:30.632Z,6.32
2022-11-26T20:33:58.673Z,6.03
2022-11-26T20:36:27.140Z,6.18
2022-11-26T20:38:57.075Z,6.30
2022-11-26T20:41:27.364Z,6.45
2022-11-26T20:43:59.007Z,7.97
2022-11-26T20:46:28.830Z,8.55
2022-11-26T20:48:57.659Z,6.75
2022-11-26T20:51:26.643Z,7.05
2022-11-26T20:53:59.559Z,6.25
2022-11-26T20:56:29.947Z,6.28
2022-11-26T20:58:58.006Z,6.70
2022-11-26T21:01:28.558Z,6.70
2022-11-26T21:03:57.136Z,6.63
2022-11-26T21:06:30.338Z,7.30
2022-11-26T21:09:01.277Z,7.28
2022-11-26T21:11:31.494Z,6.57
2022-11-26T21:14:01.656Z,7.13
2022-11-26T21:16:30.851Z,6.95
2022-11-26T21:18:59.820Z,6.53
2022-11-26T21:21:28.980Z,7.18
2022-11-26T21:23:58.726Z,6.90
2022-11-26T21:26:27.896Z,6.43
2022-11-26T21:28:58.900Z,6.00
2022-11-26T21:31:30.945Z,5.90
2022-11-26T21:34:01.306Z,7.60
2022-11-26T21:36:30.356Z,6.15
2022-11-26T21:38:58.531Z,6.53
2022-11-26T21:41:29.859Z,6.72
2022-11-26T21:44:02.918Z,6.32
2022-11-26T21:46:37.553Z,6.65
2022-11-26T21:49:06.153Z,6.43
2022-11-26T21:51:34.209Z,6.30
2022-11-26T21:54:02.274Z,8.20
2022-11-26T21:56:32.141Z,7.85
2022-11-26T21:59:02.883Z,8.43
2022-11-26T22:01:33.196Z,7.43
2022-11-26T22:04:03.996Z,6.85
2022-11-26T22:06:32.659Z,6.57
2022-11-26T22:09:01.077Z,6.65
2022-11-26T22:11:30.905Z,6.30
2022-11-26T22:13:59.184Z,6.97
2022-11-26T22:16:30.169Z,6.30
2022-11-26T22:18:59.666Z,6.50
2022-11-26T22:21:32.164Z,6.70
2022-11-26T22:24:01.509Z,6.50
2022-11-26T22:26:30.714Z,6.90
2022-11-26T22:28:59.211Z,7.28
2022-11-26T22:31:30.573Z,7.43
2022-11-26T22:34:01.374Z,6.82
2022-11-26T22:36:29.854Z,6.85
2022-11-26T22:38:58.801Z,6.38
2022-11-26T22:41:27.371Z,6.90
2022-11-26T22:43:55.439Z,6.13
2022-11-26T22:46:24.969Z,6.35
2022-11-26T22:48:58.017Z,7.88
2022-11-26T22:51:27.633Z,6.97
2022-11-26T22:53:57.633Z,6.05
2022-11-26T22:56:26.715Z,6.40
2022-11-26T22:58:55.262Z,5.90
2022-11-26T23:01:24.697Z,6.57
2022-11-26T23:03:55.541Z,5.38
2022-11-26T23:06:25.681Z,5.97
2022-11-26T23:08:55.503Z,7.25
2022-11-26T23:11:25.766Z,6.97
2022-11-26T23:13:54.659Z,6.05
2022-11-26T23:16:24.657Z,6.07
2022-11-26T23:18:54.731Z,5.63
2022-11-26T23:21:26.543Z,5.70
2022-11-26T23:23:55.135Z,5.18
2022-11-26T23:26:27.453Z,5.18
2022-11-26T23:28:56.379Z,5.57
2022-11-26T23:31:28.231Z,5.85
2022-11-26T23:33:57.964Z,5.30
2022-11-26T23:36:27.136Z,5.25
2022-11-26T23:38:56.245Z,5.95
2022-11-26T23:41:24.297Z,5.20
2022-11-26T23:43:52.413Z,5.25
2022-11-26T23:46:22.624Z,4.93
2022-11-26T23:48:51.279Z,4.80
2022-11-26T23:51:23.979Z,4.53
2022-11-26T23:56:22.266Z,5.28
2022-11-26T23:58:51.049Z,4.30
